航空気象通報

ウインドサーファーのための航空気象通報による風予報です。

7/15-7/17の航空気象通報

2017年07月16日 00時52分51秒 | TAF
羽田空港
TAF RJTT 151105Z 1512/1618 18010KT 9999 FEW008
BECMG 1517/1519 26004KT
BECMG 1600/1603 18012KT
日本時間15日21時-16日02時:180度から10ノットの風
02-04時:風が変化
04-09時:260度から4ノットの風
09-12時:風が変化
12時-17日03時:190度から10ノットの風


静岡空港
TAF RJNS 151105Z 1512/1618 24010KT 9999 FEW010
BECMG 1516/1518 30004KT
TEMPO 1518/1521 FEW005 BKN008
BECMG 1600/1603 24014KT
日本時間15日21時-16日01時:240度から10ノットの風
01-03時:風が変化
03-09時:300度から4ノットの風
09-12時:風が変化
12時-17日03時:240度から14ノットの風


福岡空港
TAF RJFF 151109Z 1512/1618 15006KT 9999 FEW030
BECMG 1600/1603 32010KT
BECMG 1612/1615 15006KT
日本時間15日21時-16日09時:150度から6ノットの風
09-12時:風が変化
12-21時:320度から10ノットの風
21-24時:風が変化
17日00-03時:150度から6ノットの風


那覇空港
TAF ROAH 151106Z 1512/1618 14005KT 9999 FEW020
TEMPO 1602/1609 SHRA FEW015 FEW020CB SCT030
日本時間15日21時-17日03時:140度から5ノットの風

但し、16日11-18時の間:ときどき

石垣空港
TAF ROIG 151109Z 1512/1618 14006KT 9999 FEW020
BECMG 1523/1601 12010KT
TEMPO 1602/1609 SHRA FEW015 FEW020CB SCT030
BECMG 1612/1615 14007KT
日本時間15日21時-16日08時:140度から6ノットの風
08-10時:風が変化
10-21時:120度から10ノットの風
21-24時:風が変化
17日00-03時:140度から7ノットの風


マウイのカフルイ空港
PHOG 151135Z 1512/1612 05011KT P6SM FEW030 SCT050
FM151900 05018G28KT P6SM FEW030 SCT050
FM160600 05012G18KT P6SM SCT030 SCT050 AMD LTD TO VIS AND WIND TIL 151600
ハワイ時間15日02-09時:050度から11ノットの風
09-20時:050度から18ノット、突風28ノット
20時-16日02時:050度から12ノット、突風18ノット


サイパン空港
TAF PGSN 151124Z 1512/1612 07009KT P6SM VCSH SCT020 SCT050
FM152300 08017KT P6SM VCSH SCT020 SCT050
マリアナ時間15日22時-16日09時:070度から9ノットの風
09-22時:080度から17ノットの風

ジャンル:
お天気
コメント   この記事についてブログを書く
この記事をはてなブックマークに追加
« 7/14-7/16の航空気象通報 | トップ | 7/16-7/18の航空気象通報 »
最近の画像もっと見る

コメントを投稿

ブログ作成者から承認されるまでコメントは反映されません。

コメント利用規約に同意の上コメント投稿を行ってください。

数字4桁を入力し、投稿ボタンを押してください。

あわせて読む

トラックバック

この記事のトラックバック  Ping-URL
ブログ作成者から承認されるまでトラックバックは反映されません。
  • 30日以上前の記事に対するトラックバックは受け取らないよう設定されております。
  • 送信元の記事内容が半角英数のみのトラックバックは受け取らないよう設定されております。
  • このブログへのリンクがない記事からのトラックバックは受け取らないよう設定されております。
  • ※ブログ管理者のみ、編集画面で設定の変更が可能です。